MSSS/SAL METAR and TAF weather

Enter ICAO airport designator
Station Type Date Time Source
MSSS METAR 2019/08/25 01:50 UTC NOAA

MSSS 250150Z 12004KT 8000 VCTS BKN033 FEW040CB 24/22 Q1015 A2998 RMK CB TS NE E


Station Type Date Time Source
MSSS Decoded METAR 2019/08/25 01:50 UTC NOAA

Station name not available
Aug 24, 2019 - 09:50 PM EDT / 2019.08.25 0150 UTC
Wind: from the ESE (120 degrees) at 5 MPH (4 KT):0
Visibility: 4 mile(s):0
Sky conditions: mostly cloudy
Weather: thunder in the vicinity; Cumulonimbus clouds observed
Temperature: 75 F (24 C)
Dew Point: 71 F (22 C)
Relative Humidity: 88%
Pressure (altimeter): 29.98 in. Hg (1015 hPa)
ob: MSSS 250150Z 12004KT 8000 VCTS BKN033 FEW040CB 24/22 Q1015 A2998 RMK CB TS NE E
cycle: 2

Station Type Date Time Source
MSSS TAF 2019/08/24 18:54 UTC NOAA

TAF MSSS 241525Z 2418/2518 20008KT 9999 SCT027 FEW037CB TX31/2419Z TN21/2512Z
TEMPO 2419/2422 8000 TSRA
FM250000 16004KT FEW023 FEW037CB PROB40
TEMPO 2503/2507 35003KT 8000 -TSRA SCT023 FEW037CB SCT043
FM251200 02003KT 9999 FEW023

Example: see airport list